createdAt,value
2019-01-11T00:00:54.210Z,17.22
2019-01-11T00:01:54.156Z,17.15
2019-01-11T00:02:54.108Z,17.18
2019-01-11T00:03:54.059Z,17.22
2019-01-11T00:04:54.012Z,17.18
2019-01-11T00:05:53.960Z,17.26
2019-01-11T00:06:53.911Z,17.21
2019-01-11T00:07:53.862Z,17.23
2019-01-11T00:08:53.811Z,17.21
2019-01-11T00:09:53.762Z,17.22
2019-01-11T00:10:53.713Z,17.26
2019-01-11T00:11:53.664Z,17.21
2019-01-11T00:12:53.614Z,17.19
2019-01-11T00:13:53.665Z,17.21
2019-01-11T00:14:53.567Z,17.14
2019-01-11T00:15:53.465Z,17.18
2019-01-11T00:16:53.416Z,17.15
2019-01-11T00:17:53.367Z,17.15
2019-01-11T00:18:53.318Z,17.21
2019-01-11T00:19:53.271Z,17.19
2019-01-11T00:20:53.219Z,17.12
2019-01-11T00:21:53.169Z,17.21
2019-01-11T00:22:53.121Z,17.21
2019-01-11T00:23:53.070Z,17.15
2019-01-11T00:24:53.019Z,17.21
2019-01-11T00:25:52.970Z,17.15
2019-01-11T00:26:52.922Z,17.11
2019-01-11T00:27:52.872Z,17.18
2019-01-11T00:28:52.824Z,17.19
2019-01-11T00:29:52.774Z,17.14
2019-01-11T00:30:52.724Z,17.16
2019-01-11T00:31:52.676Z,17.16
2019-01-11T00:32:52.626Z,17.19
2019-01-11T00:33:52.992Z,17.12
2019-01-11T00:34:52.528Z,17.16
2019-01-11T00:35:52.478Z,17.19
2019-01-11T00:36:52.428Z,17.16
2019-01-11T00:37:52.379Z,17.16
2019-01-11T00:38:52.330Z,17.16
2019-01-11T00:39:52.280Z,17.16
2019-01-11T00:40:52.231Z,17.08
2019-01-11T00:41:52.181Z,17.16
2019-01-11T00:42:52.136Z,17.12
2019-01-11T00:43:52.083Z,17.18
2019-01-11T00:44:52.032Z,17.12
2019-01-11T00:45:51.984Z,17.16
2019-01-11T00:46:51.934Z,17.21
2019-01-11T00:47:51.885Z,17.21
2019-01-11T00:48:51.887Z,17.19
2019-01-11T00:49:51.786Z,17.15
2019-01-11T00:50:51.737Z,17.18
2019-01-11T00:51:51.688Z,17.15
2019-01-11T00:52:51.638Z,17.16
2019-01-11T00:53:51.588Z,17.19
2019-01-11T00:54:51.539Z,17.21
2019-01-11T00:55:51.491Z,17.11
2019-01-11T00:56:51.440Z,17.15
2019-01-11T00:57:51.391Z,17.08
2019-01-11T00:58:51.342Z,17.12
2019-01-11T00:59:51.294Z,17.11
2019-01-11T01:00:51.243Z,17.16
2019-01-11T01:01:51.194Z,17.14
2019-01-11T01:02:51.145Z,17.14
2019-01-11T01:03:51.095Z,17.07
2019-01-11T01:04:51.045Z,17.12
2019-01-11T01:05:50.996Z,17.16
2019-01-11T01:06:50.947Z,17.08
2019-01-11T01:07:50.898Z,17.11
2019-01-11T01:08:50.848Z,17.15
2019-01-11T01:09:50.798Z,17.16
2019-01-11T01:10:50.750Z,17.14
2019-01-11T01:11:50.707Z,17.11
2019-01-11T01:12:50.649Z,17.11
2019-01-11T01:13:50.651Z,17.16
2019-01-11T01:14:50.552Z,17.08
2019-01-11T01:15:50.503Z,17.12
2019-01-11T01:16:50.553Z,17.14
2019-01-11T01:17:50.403Z,17.07
2019-01-11T01:18:50.354Z,17.12
2019-01-11T01:19:50.304Z,17.14
2019-01-11T01:20:50.255Z,17.12
2019-01-11T01:21:50.217Z,17.15
2019-01-11T01:22:50.157Z,17.15
2019-01-11T01:23:50.107Z,17.14
2019-01-11T01:24:50.059Z,17.15
2019-01-11T01:25:50.008Z,17.07
2019-01-11T01:26:49.959Z,17.14
2019-01-11T01:27:49.911Z,17.07
2019-01-11T01:28:49.862Z,17.11
2019-01-11T01:29:49.811Z,17.07
2019-01-11T01:30:49.762Z,17.14
2019-01-11T01:31:49.713Z,17.11
2019-01-11T01:32:49.662Z,17.14
2019-01-11T01:33:49.613Z,17.07
2019-01-11T01:34:49.614Z,17.15
2019-01-11T01:35:49.565Z,17.08
2019-01-11T01:36:49.472Z,17.11
2019-01-11T01:37:49.415Z,17.12
2019-01-11T01:38:49.367Z,17.14
2019-01-11T01:39:49.320Z,17.12
2019-01-11T01:40:49.269Z,17.11
2019-01-11T01:41:49.221Z,17.07
2019-01-11T01:42:49.169Z,17.14
2019-01-11T01:43:49.120Z,17.04
2019-01-11T01:44:49.081Z,17.04
2019-01-11T01:45:49.020Z,17.06
2019-01-11T01:46:48.971Z,17.14
2019-01-11T01:47:48.922Z,17.06
2019-01-11T01:48:48.872Z,17.08
2019-01-11T01:49:48.823Z,17.15
2019-01-11T01:50:48.773Z,17.08
2019-01-11T01:51:48.724Z,17.06
2019-01-11T01:52:48.674Z,17.08
2019-01-11T01:53:48.625Z,17.06
2019-01-11T01:54:48.576Z,17.04
2019-01-11T01:55:48.577Z,17.11
2019-01-11T01:56:48.476Z,17.04
2019-01-11T01:57:48.427Z,17.12
2019-01-11T01:58:48.378Z,17.01
2019-01-11T01:59:48.329Z,17.11
2019-01-11T02:00:48.279Z,17.15
2019-01-11T02:01:48.230Z,17.06
2019-01-11T02:02:48.180Z,17.08
2019-01-11T02:03:48.131Z,17.11
2019-01-11T02:04:48.081Z,17.07
2019-01-11T02:05:48.031Z,17.12
2019-01-11T02:06:47.983Z,17.07
2019-01-11T02:07:47.934Z,17.06
2019-01-11T02:08:47.883Z,17.12
2019-01-11T02:09:47.834Z,17.11
2019-01-11T02:10:47.785Z,17.08
2019-01-11T02:11:47.736Z,17.06
2019-01-11T02:12:47.688Z,17.03
2019-01-11T02:13:47.637Z,17.06
2019-01-11T02:14:47.587Z,17.15
2019-01-11T02:15:47.638Z,17.01
2019-01-11T02:16:47.488Z,17.08
2019-01-11T02:17:47.437Z,17.19
2019-01-11T02:18:47.390Z,17.00
2019-01-11T02:19:47.341Z,17.01
2019-01-11T02:20:47.289Z,17.06
2019-01-11T02:21:47.241Z,17.00
2019-01-11T02:22:47.192Z,17.08
2019-01-11T02:23:47.143Z,17.12
2019-01-11T02:24:47.093Z,17.11
2019-01-11T02:25:47.043Z,17.12
2019-01-11T02:26:46.995Z,17.08
2019-01-11T02:27:46.945Z,17.06
2019-01-11T02:28:46.895Z,17.07
2019-01-11T02:29:46.846Z,17.11
2019-01-11T02:30:46.796Z,17.08
2019-01-11T02:31:46.748Z,17.14
2019-01-11T02:32:52.425Z,17.08
2019-01-11T02:33:46.648Z,17.14
2019-01-11T02:34:46.597Z,17.04
2019-01-11T02:35:46.599Z,17.14
2019-01-11T02:36:46.502Z,17.12
2019-01-11T02:37:46.450Z,17.07
2019-01-11T02:38:46.402Z,17.03
2019-01-11T02:39:46.351Z,17.06
2019-01-11T02:40:46.302Z,17.15
2019-01-11T02:41:46.252Z,17.14
2019-01-11T02:42:46.204Z,17.07
2019-01-11T02:43:46.154Z,17.07
2019-01-11T02:44:46.105Z,17.06
2019-01-11T02:45:46.055Z,17.07
2019-01-11T02:46:46.006Z,17.06
2019-01-11T02:47:45.957Z,17.16
2019-01-11T02:48:45.906Z,17.03
2019-01-11T02:49:45.857Z,17.07
2019-01-11T02:50:45.809Z,17.04
2019-01-11T02:51:45.761Z,17.08
2019-01-11T02:52:45.707Z,17.11
2019-01-11T02:53:45.659Z,17.01
2019-01-11T02:54:45.927Z,17.06
2019-01-11T02:55:45.661Z,17.12
2019-01-11T02:56:45.512Z,17.12
2019-01-11T02:57:45.464Z,17.07
2019-01-11T02:58:45.412Z,17.12
2019-01-11T02:59:45.463Z,16.98
2019-01-11T03:00:45.313Z,17.11
2019-01-11T03:01:45.266Z,17.04
2019-01-11T03:02:45.214Z,17.08
2019-01-11T03:03:45.165Z,17.01
2019-01-11T03:04:45.115Z,17.03
2019-01-11T03:05:45.070Z,17.11
2019-01-11T03:06:45.018Z,16.97
2019-01-11T03:07:44.968Z,16.98
2019-01-11T03:08:44.918Z,17.04
2019-01-11T03:09:44.869Z,17.03
2019-01-11T03:10:44.818Z,17.06
2019-01-11T03:11:44.776Z,17.14
2019-01-11T03:12:44.720Z,17.01
2019-01-11T03:13:44.671Z,17.07
2019-01-11T03:14:44.619Z,17.12
2019-01-11T03:15:44.626Z,17.04
2019-01-11T03:16:44.521Z,17.03
2019-01-11T03:17:44.475Z,17.11
2019-01-11T03:18:44.423Z,17.06
2019-01-11T03:19:47.905Z,17.08
2019-01-11T03:20:44.324Z,17.01
2019-01-11T03:21:44.274Z,17.01
2019-01-11T03:22:44.225Z,16.97
2019-01-11T03:23:44.177Z,17.00
2019-01-11T03:24:44.125Z,17.12
2019-01-11T03:25:44.077Z,17.06
2019-01-11T03:26:44.027Z,17.07
2019-01-11T03:27:43.977Z,17.08
2019-01-11T03:28:43.927Z,17.06
2019-01-11T03:29:43.886Z,17.08
2019-01-11T03:30:43.831Z,17.06
2019-01-11T03:31:43.780Z,17.03
2019-01-11T03:32:43.751Z,17.07
2019-01-11T03:33:43.681Z,17.12
2019-01-11T03:34:43.633Z,17.11
2019-01-11T03:35:43.583Z,17.06
2019-01-11T03:36:43.532Z,17.00
2019-01-11T03:37:43.483Z,17.06
2019-01-11T03:38:43.433Z,17.04
2019-01-11T03:39:43.384Z,17.03
2019-01-11T03:40:43.336Z,17.01
2019-01-11T03:41:43.286Z,17.07
2019-01-11T03:42:43.234Z,17.01
2019-01-11T03:43:43.187Z,17.12
2019-01-11T03:44:43.139Z,17.00
2019-01-11T03:45:43.093Z,17.00
2019-01-11T03:46:43.044Z,17.14
2019-01-11T03:47:42.989Z,17.11
2019-01-11T03:48:42.939Z,17.06
2019-01-11T03:49:42.890Z,17.00
2019-01-11T03:50:42.841Z,16.98
2019-01-11T03:51:42.791Z,17.14
2019-01-11T03:52:42.741Z,17.04
2019-01-11T03:53:42.691Z,17.07
2019-01-11T03:54:42.642Z,17.01
2019-01-11T03:55:42.592Z,17.04
2019-01-11T03:56:42.594Z,17.06
2019-01-11T03:57:42.493Z,17.04
2019-01-11T03:58:42.444Z,17.04
2019-01-11T03:59:42.398Z,17.06
2019-01-11T04:00:42.346Z,17.18
2019-01-11T04:01:42.295Z,17.06
2019-01-11T04:02:42.246Z,17.04
2019-01-11T04:03:42.197Z,17.08
2019-01-11T04:04:42.149Z,17.11
2019-01-11T04:05:42.098Z,17.06
2019-01-11T04:06:42.112Z,17.00
2019-01-11T04:07:41.999Z,16.97
2019-01-11T04:08:41.952Z,17.12
2019-01-11T04:09:41.899Z,17.04
2019-01-11T04:10:41.850Z,16.97
2019-01-11T04:11:41.802Z,17.00
2019-01-11T04:12:41.750Z,17.01
2019-01-11T04:13:41.702Z,16.97
2019-01-11T04:14:41.651Z,16.98
2019-01-11T04:15:41.603Z,16.97
2019-01-11T04:16:41.603Z,16.97
2019-01-11T04:17:41.504Z,16.98
2019-01-11T04:18:41.455Z,17.07
2019-01-11T04:19:41.410Z,17.03
2019-01-11T04:20:41.355Z,16.97
2019-01-11T04:21:41.309Z,17.12
2019-01-11T04:22:41.257Z,17.11
2019-01-11T04:23:41.208Z,17.06
2019-01-11T04:24:41.159Z,16.97
2019-01-11T04:25:41.113Z,17.04
2019-01-11T04:26:41.067Z,16.98
2019-01-11T04:27:41.010Z,17.06
2019-01-11T04:28:41.045Z,17.04
2019-01-11T04:29:40.912Z,16.97
2019-01-11T04:30:40.861Z,17.08
2019-01-11T04:31:40.811Z,17.04
2019-01-11T04:32:40.763Z,17.06
2019-01-11T04:33:40.713Z,16.94
2019-01-11T04:34:40.663Z,17.06
2019-01-11T04:35:40.614Z,16.97
2019-01-11T04:36:40.614Z,17.08
2019-01-11T04:37:40.516Z,16.97
2019-01-11T04:38:40.465Z,16.94
2019-01-11T04:39:40.417Z,17.00
2019-01-11T04:40:40.368Z,17.07
2019-01-11T04:41:40.317Z,17.08
2019-01-11T04:42:40.267Z,16.98
2019-01-11T04:43:40.218Z,16.97
2019-01-11T04:44:40.168Z,16.98
2019-01-11T04:45:40.120Z,16.97
2019-01-11T04:46:40.069Z,17.03
2019-01-11T04:47:40.021Z,17.14
2019-01-11T04:48:39.970Z,16.97
2019-01-11T04:49:39.923Z,17.04
2019-01-11T04:50:39.872Z,17.14
2019-01-11T04:51:39.823Z,17.08
2019-01-11T04:52:39.774Z,16.97
2019-01-11T04:53:39.721Z,16.98
2019-01-11T04:54:39.674Z,17.07
2019-01-11T04:55:39.624Z,17.12
2019-01-11T04:56:39.574Z,16.97
2019-01-11T04:57:39.525Z,17.07
2019-01-11T04:58:39.497Z,17.01
2019-01-11T04:59:39.428Z,17.01
2019-01-11T05:00:39.377Z,17.07
2019-01-11T05:01:39.327Z,17.06
2019-01-11T05:02:39.280Z,17.03
2019-01-11T05:03:39.229Z,16.97
2019-01-11T05:04:39.178Z,17.03
2019-01-11T05:05:39.129Z,17.03
2019-01-11T05:06:39.080Z,17.11
2019-01-11T05:07:39.032Z,17.06
2019-01-11T05:08:38.981Z,17.12
2019-01-11T05:09:38.931Z,17.07
2019-01-11T05:10:38.882Z,17.04
2019-01-11T05:11:38.833Z,17.00
2019-01-11T05:12:38.786Z,17.06
2019-01-11T05:13:38.732Z,16.94
2019-01-11T05:14:38.685Z,16.97
2019-01-11T05:15:38.639Z,17.04
2019-01-11T05:16:39.534Z,17.08
2019-01-11T05:17:38.535Z,17.07
2019-01-11T05:18:38.486Z,17.06
2019-01-11T05:19:38.437Z,17.04
2019-01-11T05:20:38.386Z,17.04
2019-01-11T05:21:38.338Z,16.98
2019-01-11T05:22:38.289Z,17.00
2019-01-11T05:23:38.254Z,17.06
2019-01-11T05:24:38.189Z,17.01
2019-01-11T05:25:38.139Z,17.11
2019-01-11T05:26:38.091Z,16.97
2019-01-11T05:27:38.041Z,17.01
2019-01-11T05:28:37.991Z,17.04
2019-01-11T05:29:37.944Z,17.04
2019-01-11T05:30:37.894Z,17.00
2019-01-11T05:31:37.847Z,17.01
2019-01-11T05:32:37.793Z,17.06
2019-01-11T05:33:37.743Z,17.06
2019-01-11T05:34:37.694Z,17.03
2019-01-11T05:35:37.645Z,17.06
2019-01-11T05:36:37.595Z,17.06
2019-01-11T05:37:37.752Z,17.00
2019-01-11T05:38:37.501Z,16.98
2019-01-11T05:39:37.447Z,17.06
2019-01-11T05:40:37.397Z,17.07
2019-01-11T05:41:37.347Z,17.06
2019-01-11T05:42:37.298Z,17.03
2019-01-11T05:43:37.249Z,16.97
2019-01-11T05:44:37.199Z,17.03
2019-01-11T05:45:37.150Z,17.06
2019-01-11T05:46:37.102Z,17.06
2019-01-11T05:47:37.051Z,17.08
2019-01-11T05:48:37.004Z,17.04
2019-01-11T05:49:36.952Z,17.03
2019-01-11T05:50:36.903Z,17.00
2019-01-11T05:51:36.854Z,17.01
2019-01-11T05:52:36.803Z,17.08
2019-01-11T05:53:36.756Z,17.01
2019-01-11T05:54:36.704Z,17.03
2019-01-11T05:55:36.658Z,17.06
2019-01-11T05:56:36.606Z,17.12
2019-01-11T05:57:36.606Z,17.03
2019-01-11T05:58:36.508Z,17.04
2019-01-11T05:59:36.458Z,17.00
2019-01-11T06:00:36.408Z,17.07
2019-01-11T06:01:36.368Z,17.11
2019-01-11T06:02:36.310Z,17.00
2019-01-11T06:03:36.260Z,17.06
2019-01-11T06:04:36.210Z,17.06
2019-01-11T06:05:36.165Z,17.01
2019-01-11T06:06:36.111Z,17.03
2019-01-11T06:07:36.062Z,17.08
2019-01-11T06:08:36.012Z,17.01
2019-01-11T06:09:35.963Z,17.03
2019-01-11T06:10:35.913Z,16.98
2019-01-11T06:11:35.864Z,17.00
2019-01-11T06:12:35.813Z,17.08
2019-01-11T06:13:35.763Z,16.97
2019-01-11T06:14:35.713Z,17.00
2019-01-11T06:15:35.664Z,17.04
2019-01-11T06:16:35.665Z,17.06
2019-01-11T06:17:35.616Z,16.97
2019-01-11T06:18:35.516Z,17.08
2019-01-11T06:19:35.466Z,17.00
2019-01-11T06:20:35.418Z,17.01
2019-01-11T06:21:35.367Z,16.96
2019-01-11T06:22:35.318Z,17.06
2019-01-11T06:23:35.272Z,16.98
2019-01-11T06:24:35.259Z,16.97
2019-01-11T06:25:35.170Z,17.06
2019-01-11T06:26:35.119Z,17.00
2019-01-11T06:27:35.072Z,16.97
2019-01-11T06:28:35.026Z,17.07
2019-01-11T06:29:34.971Z,17.08
2019-01-11T06:30:34.928Z,17.07
2019-01-11T06:31:34.872Z,17.04
2019-01-11T06:32:34.822Z,17.01
2019-01-11T06:33:34.774Z,17.06
2019-01-11T06:34:34.740Z,16.98
2019-01-11T06:35:34.677Z,16.97
2019-01-11T06:36:34.624Z,17.08
2019-01-11T06:37:34.575Z,17.04
2019-01-11T06:38:34.531Z,17.00
2019-01-11T06:39:34.477Z,16.98
2019-01-11T06:40:34.427Z,16.98
2019-01-11T06:41:34.378Z,17.06
2019-01-11T06:42:34.327Z,17.01
2019-01-11T06:43:34.278Z,17.07
2019-01-11T06:44:38.926Z,17.00
2019-01-11T06:45:34.179Z,17.08
2019-01-11T06:46:34.133Z,17.03
2019-01-11T06:47:34.080Z,16.98
2019-01-11T06:48:34.030Z,17.00
2019-01-11T06:49:33.981Z,16.98
2019-01-11T06:50:36.607Z,17.04
2019-01-11T06:51:33.882Z,16.96
2019-01-11T06:52:33.833Z,17.11
2019-01-11T06:53:33.784Z,17.11
2019-01-11T06:54:33.734Z,17.03
2019-01-11T06:55:33.684Z,16.98
2019-01-11T06:56:33.634Z,17.08
2019-01-11T06:57:33.585Z,17.08
2019-01-11T06:58:33.586Z,17.01
2019-01-11T06:59:33.488Z,17.03
2019-01-11T07:00:33.436Z,17.03
2019-01-11T07:01:33.704Z,17.12
2019-01-11T07:02:33.338Z,16.97
2019-01-11T07:03:33.287Z,17.12
2019-01-11T07:04:33.238Z,17.03
2019-01-11T07:05:33.189Z,17.04
2019-01-11T07:06:33.140Z,17.08
2019-01-11T07:07:33.090Z,17.06
2019-01-11T07:08:33.039Z,17.00
2019-01-11T07:09:32.990Z,17.01
2019-01-11T07:10:32.941Z,17.11
2019-01-11T07:11:32.892Z,17.01
2019-01-11T07:12:32.841Z,17.06
2019-01-11T07:13:32.793Z,17.00
2019-01-11T07:14:32.742Z,17.01
2019-01-11T07:15:32.694Z,17.06
2019-01-11T07:16:32.643Z,17.07
2019-01-11T07:17:32.594Z,17.01
2019-01-11T07:18:32.595Z,17.00
2019-01-11T07:19:32.495Z,17.08
2019-01-11T07:20:32.444Z,17.14
2019-01-11T07:21:32.400Z,17.00
2019-01-11T07:22:32.348Z,17.11
2019-01-11T07:23:32.297Z,17.06
2019-01-11T07:24:32.248Z,17.07
2019-01-11T07:25:32.199Z,17.01
2019-01-11T07:26:32.148Z,17.04
2019-01-11T07:27:32.100Z,17.00
2019-01-11T07:28:32.050Z,16.96
2019-01-11T07:29:32.000Z,16.98
2019-01-11T07:30:31.950Z,16.97
2019-01-11T07:31:31.902Z,16.96
2019-01-11T07:32:31.852Z,16.97
2019-01-11T07:33:31.802Z,16.97
2019-01-11T07:34:31.753Z,16.97
2019-01-11T07:35:31.705Z,17.03
2019-01-11T07:36:31.654Z,17.03
2019-01-11T07:37:31.606Z,16.98
2019-01-11T07:38:31.605Z,16.98
2019-01-11T07:39:31.506Z,16.97
2019-01-11T07:40:31.456Z,17.11
2019-01-11T07:41:31.406Z,16.97
2019-01-11T07:42:31.357Z,16.97
2019-01-11T07:43:31.308Z,17.08
2019-01-11T07:44:31.256Z,16.98
2019-01-11T07:45:31.208Z,16.97
2019-01-11T07:46:31.159Z,17.14
2019-01-11T07:47:31.109Z,17.08
2019-01-11T07:48:31.060Z,17.06
2019-01-11T07:49:31.010Z,16.98
2019-01-11T07:50:30.961Z,17.06
2019-01-11T07:51:30.918Z,17.00
2019-01-11T07:52:30.862Z,17.03
2019-01-11T07:53:30.812Z,17.00
2019-01-11T07:54:30.762Z,17.00
2019-01-11T07:55:30.714Z,17.01
2019-01-11T07:56:30.664Z,17.07
2019-01-11T07:57:30.664Z,16.97
2019-01-11T07:58:30.616Z,16.94
2019-01-11T07:59:30.516Z,17.01
2019-01-11T08:00:30.466Z,16.97
2019-01-11T08:01:30.420Z,17.04
2019-01-11T08:02:30.368Z,16.98
2019-01-11T08:03:30.319Z,17.15
2019-01-11T08:04:30.267Z,16.97
2019-01-11T08:05:30.226Z,17.03
2019-01-11T08:06:30.170Z,17.08
2019-01-11T08:07:30.121Z,17.04
2019-01-11T08:08:30.070Z,17.06
2019-01-11T08:09:30.024Z,17.01
2019-01-11T08:10:29.973Z,17.01
2019-01-11T08:11:29.923Z,16.98
2019-01-11T08:12:29.872Z,17.07
2019-01-11T08:13:29.829Z,17.00
2019-01-11T08:14:29.774Z,17.08
2019-01-11T08:15:29.725Z,17.11
2019-01-11T08:16:29.675Z,17.08
2019-01-11T08:17:29.625Z,17.19
2019-01-11T08:18:29.576Z,17.08
2019-01-11T08:19:29.527Z,17.07
2019-01-11T08:20:29.482Z,17.12
2019-01-11T08:21:29.432Z,17.03
2019-01-11T08:22:29.380Z,17.08
2019-01-11T08:23:29.333Z,17.11
2019-01-11T08:24:29.280Z,17.11
2019-01-11T08:25:29.330Z,17.12
2019-01-11T08:26:29.180Z,17.18
2019-01-11T08:27:29.132Z,17.23
2019-01-11T08:28:29.082Z,17.23
2019-01-11T08:29:29.034Z,17.22
2019-01-11T08:30:28.983Z,17.26
2019-01-11T08:31:34.736Z,17.22
2019-01-11T08:32:28.883Z,17.19
2019-01-11T08:33:28.835Z,17.18
2019-01-11T08:34:28.786Z,17.23
2019-01-11T08:35:29.166Z,17.18
2019-01-11T08:36:28.686Z,17.31
2019-01-11T08:37:28.636Z,17.21
2019-01-11T08:38:28.588Z,17.23
2019-01-11T08:39:32.398Z,17.18
2019-01-11T08:40:28.489Z,17.25
2019-01-11T08:41:28.440Z,17.26
2019-01-11T08:42:28.390Z,17.30
2019-01-11T08:43:28.340Z,17.26
2019-01-11T08:44:28.290Z,17.23
2019-01-11T08:45:28.241Z,17.25
2019-01-11T08:46:28.191Z,17.23
2019-01-11T08:47:28.142Z,17.28
2019-01-11T08:48:28.093Z,17.31
2019-01-11T08:49:28.042Z,17.26
2019-01-11T08:50:27.995Z,17.21
2019-01-11T08:51:27.945Z,17.23
2019-01-11T08:52:27.895Z,17.18
2019-01-11T08:53:27.845Z,17.18
2019-01-11T08:54:27.797Z,17.16
2019-01-11T08:55:27.749Z,17.31
2019-01-11T08:56:27.697Z,17.30
2019-01-11T08:57:27.648Z,17.23
2019-01-11T08:58:27.600Z,17.21
2019-01-11T08:59:27.551Z,17.26
2019-01-11T09:00:27.499Z,17.21
2019-01-11T09:01:27.451Z,17.19
2019-01-11T09:02:27.401Z,17.28
2019-01-11T09:03:27.351Z,17.28
2019-01-11T09:04:27.863Z,17.23
2019-01-11T09:05:27.254Z,17.22
2019-01-11T09:06:27.203Z,17.23
2019-01-11T09:07:27.153Z,17.22
2019-01-11T09:08:27.104Z,17.26
2019-01-11T09:09:27.055Z,17.26
2019-01-11T09:10:27.004Z,17.33
2019-01-11T09:11:26.955Z,17.28
2019-01-11T09:12:26.904Z,17.31
2019-01-11T09:13:26.857Z,17.30
2019-01-11T09:14:26.806Z,17.38
2019-01-11T09:15:26.757Z,17.33
2019-01-11T09:16:26.708Z,17.37
2019-01-11T09:17:26.659Z,17.44
2019-01-11T09:18:26.612Z,17.38
2019-01-11T09:19:26.559Z,17.43
2019-01-11T09:20:26.509Z,17.38
2019-01-11T09:21:26.462Z,17.33
2019-01-11T09:22:26.411Z,17.37
2019-01-11T09:23:26.363Z,17.33
2019-01-11T09:24:26.312Z,17.28
2019-01-11T09:25:26.263Z,17.33
2019-01-11T09:26:26.213Z,17.28
2019-01-11T09:27:26.164Z,17.26
2019-01-11T09:28:26.113Z,17.26
2019-01-11T09:29:26.070Z,17.25
2019-01-11T09:30:26.016Z,17.33
2019-01-11T09:31:25.967Z,17.28
2019-01-11T09:32:25.917Z,17.28
2019-01-11T09:33:25.867Z,17.38
2019-01-11T09:34:25.818Z,17.25
2019-01-11T09:35:25.769Z,17.25
2019-01-11T09:36:25.718Z,17.31
2019-01-11T09:37:25.674Z,17.34
2019-01-11T09:38:25.621Z,17.40
2019-01-11T09:39:25.572Z,17.26
2019-01-11T09:40:25.571Z,17.30
2019-01-11T09:41:25.471Z,17.37
2019-01-11T09:42:25.422Z,17.28
2019-01-11T09:43:25.374Z,17.33
2019-01-11T09:44:25.323Z,17.28
2019-01-11T09:45:25.275Z,17.26
2019-01-11T09:46:25.225Z,17.28
2019-01-11T09:47:25.174Z,17.22
2019-01-11T09:48:25.125Z,17.28
2019-01-11T09:49:25.095Z,17.26
2019-01-11T09:50:25.028Z,17.36
2019-01-11T09:51:24.978Z,17.30
2019-01-11T09:52:24.927Z,17.25
2019-01-11T09:53:24.879Z,17.30
2019-01-11T09:54:24.830Z,17.26
2019-01-11T09:55:24.779Z,17.28
2019-01-11T09:56:24.732Z,17.28
2019-01-11T09:57:24.680Z,17.25
2019-01-11T09:58:24.632Z,17.31
2019-01-11T09:59:24.617Z,17.23
2019-01-11T10:00:24.583Z,17.28
2019-01-11T10:01:24.485Z,17.30
2019-01-11T10:02:24.469Z,17.30
2019-01-11T10:03:24.384Z,17.28
2019-01-11T10:04:24.335Z,17.30
2019-01-11T10:05:24.286Z,17.28
2019-01-11T10:06:24.236Z,17.28
2019-01-11T10:07:24.186Z,17.26
2019-01-11T10:08:24.137Z,17.25
2019-01-11T10:09:24.087Z,17.25
2019-01-11T10:10:24.039Z,17.25
2019-01-11T10:11:23.989Z,17.31
2019-01-11T10:12:23.939Z,17.30
2019-01-11T10:13:23.890Z,17.26
2019-01-11T10:14:23.841Z,17.26
2019-01-11T10:15:23.790Z,17.30
2019-01-11T10:16:23.846Z,17.28
2019-01-11T10:17:23.692Z,17.34
2019-01-11T10:18:23.643Z,17.31
2019-01-11T10:19:23.593Z,17.31
2019-01-11T10:20:23.546Z,17.25
2019-01-11T10:21:24.068Z,17.25
2019-01-11T10:22:23.444Z,17.26
2019-01-11T10:23:23.396Z,17.28
2019-01-11T10:24:23.345Z,17.25
2019-01-11T10:25:23.295Z,17.28
2019-01-11T10:26:23.247Z,17.30
2019-01-11T10:27:23.198Z,17.28
2019-01-11T10:28:23.148Z,17.31
2019-01-11T10:29:23.099Z,17.30
2019-01-11T10:30:23.048Z,17.25
2019-01-11T10:31:22.999Z,17.30
2019-01-11T10:32:22.951Z,17.26
2019-01-11T10:33:22.900Z,17.30
2019-01-11T10:34:22.851Z,17.25
2019-01-11T10:35:22.802Z,17.30
2019-01-11T10:36:22.751Z,17.40
2019-01-11T10:37:22.702Z,17.33
2019-01-11T10:38:22.653Z,17.36
2019-01-11T10:39:22.654Z,17.38
2019-01-11T10:40:22.553Z,17.38
2019-01-11T10:41:22.505Z,17.34
2019-01-11T10:42:22.455Z,17.40
2019-01-11T10:43:22.407Z,17.38
2019-01-11T10:44:22.357Z,17.41
2019-01-11T10:45:22.308Z,17.38
2019-01-11T10:46:22.258Z,17.43
2019-01-11T10:47:22.208Z,17.40
2019-01-11T10:48:22.158Z,17.41
2019-01-11T10:49:22.108Z,17.37
2019-01-11T10:50:22.060Z,17.43
2019-01-11T10:51:28.000Z,17.40
2019-01-11T10:52:21.962Z,17.33
2019-01-11T10:53:21.912Z,17.36
2019-01-11T10:54:21.862Z,17.34
2019-01-11T10:55:21.818Z,17.33
2019-01-11T10:56:21.763Z,17.31
2019-01-11T10:57:21.713Z,17.38
2019-01-11T10:58:21.664Z,17.36
2019-01-11T10:59:21.622Z,17.43
2019-01-11T11:00:21.616Z,17.38
2019-01-11T11:01:21.516Z,17.37
2019-01-11T11:02:21.471Z,17.37
2019-01-11T11:03:21.417Z,17.33
2019-01-11T11:04:21.368Z,17.36
2019-01-11T11:05:21.318Z,17.38
2019-01-11T11:06:21.270Z,17.37
2019-01-11T11:07:21.220Z,17.37
2019-01-11T11:08:21.172Z,17.46
2019-01-11T11:09:21.121Z,17.46
2019-01-11T11:10:21.071Z,17.40
2019-01-11T11:11:21.023Z,17.41
2019-01-11T11:12:20.972Z,17.44
2019-01-11T11:13:20.921Z,17.36
2019-01-11T11:14:20.878Z,17.30
2019-01-11T11:15:20.823Z,17.43
2019-01-11T11:16:20.773Z,17.37
2019-01-11T11:17:20.775Z,17.44
2019-01-11T11:18:20.675Z,17.34
2019-01-11T11:19:20.627Z,17.40
2019-01-11T11:20:20.577Z,17.46
2019-01-11T11:21:20.527Z,17.44
2019-01-11T11:22:20.477Z,17.44
2019-01-11T11:23:20.428Z,17.46
2019-01-11T11:24:20.379Z,17.48
2019-01-11T11:25:20.329Z,17.43
2019-01-11T11:26:20.281Z,17.44
2019-01-11T11:27:20.232Z,17.48
2019-01-11T11:28:20.180Z,17.40
2019-01-11T11:29:20.132Z,17.43
2019-01-11T11:30:20.084Z,17.41
2019-01-11T11:31:20.034Z,17.44
2019-01-11T11:32:19.984Z,17.48
2019-01-11T11:33:19.935Z,17.48
2019-01-11T11:34:19.886Z,17.46
2019-01-11T11:35:19.838Z,17.48
2019-01-11T11:36:19.784Z,17.43
2019-01-11T11:37:19.735Z,17.37
2019-01-11T11:38:19.687Z,17.44
2019-01-11T11:39:19.638Z,17.48
2019-01-11T11:40:19.587Z,17.44
2019-01-11T11:41:19.537Z,17.41
2019-01-11T11:42:19.489Z,17.40
2019-01-11T11:43:19.451Z,17.44
2019-01-11T11:44:19.389Z,17.46
2019-01-11T11:45:19.341Z,17.52
2019-01-11T11:46:19.293Z,17.52
2019-01-11T11:47:19.242Z,17.54
2019-01-11T11:48:19.192Z,17.56
2019-01-11T11:49:19.142Z,17.46
2019-01-11T11:50:19.094Z,17.46
2019-01-11T11:51:19.045Z,17.55
2019-01-11T11:52:18.995Z,17.54
2019-01-11T11:53:18.948Z,17.52
2019-01-11T11:54:18.896Z,17.64
2019-01-11T11:55:18.847Z,17.63
2019-01-11T11:56:18.799Z,17.64
2019-01-11T11:57:18.748Z,17.66
2019-01-11T11:58:18.703Z,17.68
2019-01-11T11:59:18.649Z,17.70
2019-01-11T12:00:18.601Z,17.70
2019-01-11T12:01:18.550Z,17.72
2019-01-11T12:02:19.354Z,17.71
2019-01-11T12:03:18.451Z,17.72
2019-01-11T12:04:18.402Z,17.79
2019-01-11T12:05:18.352Z,17.68
2019-01-11T12:06:18.303Z,17.78
2019-01-11T12:07:18.259Z,17.78
2019-01-11T12:08:18.205Z,17.77
2019-01-11T12:09:18.156Z,17.81
2019-01-11T12:10:18.107Z,17.90
2019-01-11T12:11:18.057Z,17.81
2019-01-11T12:12:18.015Z,17.82
2019-01-11T12:13:17.958Z,17.78
2019-01-11T12:14:17.909Z,17.82
2019-01-11T12:15:17.862Z,17.87
2019-01-11T12:16:17.810Z,17.84
2019-01-11T12:17:17.767Z,17.90
2019-01-11T12:18:17.710Z,17.90
2019-01-11T12:19:17.662Z,17.93
2019-01-11T12:20:17.612Z,17.90
2019-01-11T12:21:17.665Z,17.89
2019-01-11T12:22:17.519Z,17.90
2019-01-11T12:23:17.503Z,17.99
2019-01-11T12:24:17.417Z,17.92
2019-01-11T12:25:17.366Z,17.93
2019-01-11T12:26:17.317Z,17.97
2019-01-11T12:27:17.267Z,17.89
2019-01-11T12:28:17.217Z,17.93
2019-01-11T12:29:17.168Z,17.90
2019-01-11T12:30:17.119Z,17.90
2019-01-11T12:31:17.071Z,17.95
2019-01-11T12:32:19.682Z,17.77
2019-01-11T12:33:16.971Z,17.89
2019-01-11T12:34:16.923Z,17.82
2019-01-11T12:35:16.874Z,17.79
2019-01-11T12:36:16.823Z,17.78
2019-01-11T12:37:16.777Z,17.84
2019-01-11T12:38:16.728Z,17.81
2019-01-11T12:39:16.676Z,17.71
2019-01-11T12:40:16.625Z,17.79
2019-01-11T12:41:16.578Z,17.75
2019-01-11T12:42:16.628Z,17.77
2019-01-11T12:43:16.481Z,17.68
2019-01-11T12:44:16.429Z,17.71
2019-01-11T12:45:16.381Z,17.77
2019-01-11T12:46:16.331Z,17.74
2019-01-11T12:47:16.290Z,17.71
2019-01-11T12:48:16.231Z,17.75
2019-01-11T12:49:16.183Z,17.70
2019-01-11T12:50:16.136Z,17.63
2019-01-11T12:51:16.087Z,17.63
2019-01-11T12:52:16.036Z,17.68